Time;durP1;ratioP1;P1;durP2;ratioP2;P2;SDS_P1;SDS_P2;PMS_P1;PMS_P2;Temp;Humidity;BMP_temperature;BMP_pressure;BME280_temperature;BME280_humidity;BME280_pressure;Samples;Min_cycle;Max_cycle;Signal;HPM_P1;HPM_P2
2024/01/22 00:01:06;;;;;;;9.53;3.63;;;;;;;4.30;100.00;100639.53;7323018;19;20556;-39
2024/01/22 00:03:36;;;;;;;11.80;4.27;;;;;;;4.19;100.00;100591.22;7341169;19;20423;-40
2024/01/22 00:06:06;;;;;;;11.03;4.50;;;;;;;4.09;100.00;100535.22;7321696;19;21049;-39
2024/01/22 00:08:36;;;;;;;6.77;3.70;;;;;;;3.96;100.00;100502.03;7345778;19;20490;-39
2024/01/22 00:11:06;;;;;;;12.93;4.70;;;;;;;3.94;100.00;100495.94;7324392;19;20415;-39
2024/01/22 00:13:35;;;;;;;9.67;3.10;;;;;;;3.98;100.00;100454.47;7345778;19;21007;-39
2024/01/22 00:16:08;;;;;;;7.27;3.47;;;;;;;3.97;100.00;100415.31;7323962;19;20402;-39
2024/01/22 00:18:39;;;;;;;19.17;5.87;;;;;;;3.97;100.00;100381.25;7346596;19;20839;-40
2024/01/22 00:21:08;;;;;;;14.47;6.03;;;;;;;3.99;100.00;100341.41;7323654;19;20784;-41
2024/01/22 00:23:38;;;;;;;15.40;3.70;;;;;;;4.07;100.00;100369.94;7345491;19;20458;-40
2024/01/22 00:26:12;;;;;;;24.63;5.63;;;;;;;4.11;100.00;100377.88;7323157;19;20425;-38
2024/01/22 00:28:42;;;;;;;7.93;3.63;;;;;;;4.10;100.00;100385.47;7345289;19;20431;-40
2024/01/22 00:31:14;;;;;;;11.07;3.27;;;;;;;4.09;100.00;100345.41;7324349;19;20395;-40
2024/01/22 00:33:44;;;;;;;13.60;5.30;;;;;;;4.13;100.00;100303.91;7346776;19;20425;-41
2024/01/22 00:36:14;;;;;;;14.80;5.13;;;;;;;4.17;100.00;100306.75;7332049;19;20390;-40
2024/01/22 00:38:44;;;;;;;15.20;5.73;;;;;;;4.17;100.00;100310.97;7352609;19;20431;-40
2024/01/22 00:41:14;;;;;;;12.00;3.40;;;;;;;4.17;100.00;100309.28;7330340;19;20992;-39
2024/01/22 00:43:44;;;;;;;8.30;2.10;;;;;;;4.18;100.00;100288.09;7353083;19;20425;-39
2024/01/22 00:46:16;;;;;;;4.77;2.90;;;;;;;4.12;100.00;100282.63;7328045;19;20401;-41
2024/01/22 00:48:45;;;;;;;12.93;3.53;;;;;;;4.16;100.00;100286.25;7353231;19;20431;-40
2024/01/22 00:51:15;;;;;;;14.23;5.30;;;;;;;4.16;100.00;100253.91;7331211;19;20432;-40
2024/01/22 00:53:45;;;;;;;12.80;5.70;;;;;;;4.16;100.00;100253.03;7352303;19;20423;-40
2024/01/22 00:56:15;;;;;;;7.33;3.17;;;;;;;4.15;100.00;100258.94;7331059;19;20398;-40
2024/01/22 00:58:44;;;;;;;10.27;5.20;;;;;;;4.12;100.00;100231.56;7351734;19;20413;-40
2024/01/22 01:01:16;;;;;;;17.23;6.47;;;;;;;4.14;100.00;100216.31;7330178;19;20465;-40
2024/01/22 01:03:46;;;;;;;7.17;3.43;;;;;;;4.07;100.00;100227.84;7348091;19;20415;-38
2024/01/22 01:06:16;;;;;;;16.27;7.80;;;;;;;4.05;100.00;100212.41;7331078;19;20515;-39
2024/01/22 01:08:45;;;;;;;10.67;4.27;;;;;;;4.01;100.00;100202.81;7351506;19;20430;-40
2024/01/22 01:11:15;;;;;;;10.47;4.67;;;;;;;4.02;100.00;100242.88;7331007;19;20424;-39
2024/01/22 01:13:45;;;;;;;9.80;4.43;;;;;;;4.10;100.00;100232.25;7351740;19;20463;-39
2024/01/22 01:16:17;;;;;;;13.00;5.67;;;;;;;4.13;100.00;100237.53;7330542;19;20388;-39
2024/01/22 01:18:47;;;;;;;9.33;4.73;;;;;;;4.17;100.00;100253.13;7344232;19;20423;-37
2024/01/22 01:21:17;;;;;;;9.70;5.17;;;;;;;4.15;100.00;100216.41;7351159;19;20945;-39
2024/01/22 01:23:46;;;;;;;16.57;6.37;;;;;;;4.16;100.00;100196.88;7345605;19;20436;-37
2024/01/22 01:26:16;;;;;;;6.60;3.67;;;;;;;4.10;100.00;100187.16;7351255;19;20406;-40
2024/01/22 01:28:45;;;;;;;14.77;3.47;;;;;;;4.25;100.00;100158.22;7351656;19;20498;-40
2024/01/22 01:31:18;;;;;;;12.97;5.63;;;;;;;4.30;100.00;100149.13;7330302;19;20489;-42
2024/01/22 01:33:47;;;;;;;11.83;3.93;;;;;;;4.33;100.00;100185.94;7336455;19;20473;-39
2024/01/22 01:36:18;;;;;;;11.90;4.07;;;;;;;4.39;100.00;100174.31;7352319;19;20440;-40
2024/01/22 01:38:47;;;;;;;11.70;4.30;;;;;;;4.38;100.00;100222.00;7339089;19;20423;-38
2024/01/22 01:41:17;;;;;;;13.80;4.37;;;;;;;4.46;100.00;100214.75;7351363;19;20941;-41
2024/01/22 01:43:47;;;;;;;10.60;4.10;;;;;;;4.50;100.00;100226.06;7344492;19;20423;-37
2024/01/22 01:46:19;;;;;;;16.13;4.80;;;;;;;4.51;100.00;100189.47;7349464;19;20407;-40
2024/01/22 01:48:48;;;;;;;16.40;3.73;;;;;;;4.52;100.00;100181.03;7327998;19;20452;-40
2024/01/22 01:51:18;;;;;;;8.47;3.97;;;;;;;4.51;100.00;100192.03;7350855;19;20446;-39
2024/01/22 01:53:48;;;;;;;11.27;4.27;;;;;;;4.61;100.00;100165.34;7329668;19;20498;-40
2024/01/22 01:56:18;;;;;;;8.43;3.90;;;;;;;4.62;100.00;100167.97;7350581;19;20427;-41
2024/01/22 01:58:48;;;;;;;16.07;6.77;;;;;;;4.66;100.00;100159.66;7332118;19;20427;-40
2024/01/22 02:01:20;;;;;;;11.30;4.23;;;;;;;4.67;100.00;100151.22;7351124;19;20433;-40
2024/01/22 02:03:50;;;;;;;4.67;2.10;;;;;;;4.63;100.00;100148.41;7318900;19;20973;-40
2024/01/22 02:06:20;;;;;;;10.73;4.57;;;;;;;4.64;100.00;100125.50;7350122;19;20423;-39
2024/01/22 02:08:53;;;;;;;5.43;2.67;;;;;;;4.72;100.00;100144.69;7327878;19;21103;-38
2024/01/22 02:11:23;;;;;;;13.13;5.00;;;;;;;4.79;100.00;100129.69;7350499;19;20799;-41
2024/01/22 02:13:53;;;;;;;19.07;6.37;;;;;;;4.78;100.00;100150.94;7327596;19;20500;-39
2024/01/22 02:16:25;;;;;;;5.40;2.67;;;;;;;4.78;100.00;100149.28;7349751;19;20515;-40
2024/01/22 02:18:54;;;;;;;20.03;6.90;;;;;;;4.78;100.00;100110.94;7327654;19;20433;-40
2024/01/22 02:21:24;;;;;;;13.73;2.13;;;;;;;4.70;100.00;100104.50;7347999;19;20433;-41
2024/01/22 02:23:57;;;;;;;14.87;6.17;;;;;;;4.74;100.00;100080.88;7326658;19;20519;-41
2024/01/22 02:26:26;;;;;;;4.53;2.20;;;;;;;4.72;100.00;100062.91;7348497;19;20878;-40
2024/01/22 02:28:56;;;;;;;7.10;3.20;;;;;;;4.73;100.00;100051.88;7326901;19;20430;-40
2024/01/22 02:31:25;;;;;;;9.70;4.10;;;;;;;4.77;100.00;100031.59;7343364;19;20431;-40
2024/01/22 02:33:55;;;;;;;4.97;2.90;;;;;;;4.85;100.00;100053.34;7326013;19;20576;-40
2024/01/22 02:36:25;;;;;;;8.23;3.17;;;;;;;4.83;100.00;100065.16;7347831;19;20431;-39
2024/01/22 02:38:57;;;;;;;19.77;6.60;;;;;;;4.84;100.00;100077.16;7326899;19;20427;-40
2024/01/22 02:41:27;;;;;;;5.23;2.70;;;;;;;4.87;100.00;100082.41;7348789;19;20438;-40
2024/01/22 02:43:56;;;;;;;4.27;1.90;;;;;;;4.89;100.00;100073.16;7327223;19;20864;-39
2024/01/22 02:46:26;;;;;;;5.77;2.10;;;;;;;4.93;100.00;100082.72;7347928;19;20440;-40
2024/01/22 02:48:56;;;;;;;5.93;3.10;;;;;;;4.94;100.00;100081.97;7326988;19;20535;-40
2024/01/22 02:51:25;;;;;;;9.37;3.23;;;;;;;4.95;100.00;100055.59;7348299;19;20418;-40
2024/01/22 02:53:58;;;;;;;7.60;1.83;;;;;;;4.95;100.00;100058.16;7326303;19;20498;-40
2024/01/22 02:56:28;;;;;;;5.47;2.97;;;;;;;4.98;100.00;100058.31;7345971;19;20436;-40
2024/01/22 02:58:58;;;;;;;4.37;2.30;;;;;;;5.00;100.00;100048.16;7326479;19;20815;-42
2024/01/22 03:01:28;;;;;;;6.70;1.83;;;;;;;4.98;100.00;100065.97;7348455;19;21018;-41
2024/01/22 03:03:58;;;;;;;6.37;2.43;;;;;;;5.01;100.00;100039.69;7324635;19;20427;-41
2024/01/22 03:06:27;;;;;;;11.83;3.77;;;;;;;4.96;100.00;100038.56;7347043;19;20434;-42
2024/01/22 03:08:59;;;;;;;10.53;4.57;;;;;;;4.93;100.00;100029.03;7326418;19;20865;-40
2024/01/22 03:11:29;;;;;;;12.17;4.53;;;;;;;4.99;100.00;100006.34;7347679;19;20430;-40
2024/01/22 03:13:59;;;;;;;7.10;2.63;;;;;;;4.99;100.00;100005.50;7326337;19;20434;-40
2024/01/22 03:16:28;;;;;;;9.13;2.70;;;;;;;4.99;100.00;99996.13;7346902;19;20502;-40
2024/01/22 03:18:59;;;;;;;7.80;3.37;;;;;;;5.04;100.00;99998.06;7326064;19;20419;-40
2024/01/22 03:21:28;;;;;;;5.67;2.90;;;;;;;5.05;100.00;99975.13;7346851;19;20820;-40
2024/01/22 03:24:01;;;;;;;3.57;1.40;;;;;;;5.05;100.00;99980.25;7325144;19;20431;-40
2024/01/22 03:26:30;;;;;;;11.33;2.43;;;;;;;5.07;100.00;99977.78;7346861;19;20425;-40
2024/01/22 03:29:00;;;;;;;10.63;4.70;;;;;;;5.09;100.00;99965.94;7325681;19;20430;-40
2024/01/22 03:31:32;;;;;;;7.30;2.43;;;;;;;5.08;100.00;99989.75;7347122;19;20511;-40
2024/01/22 03:34:02;;;;;;;4.50;1.23;;;;;;;5.11;100.00;99990.78;7325782;19;20434;-40
2024/01/22 03:36:32;;;;;;;32.37;9.40;;;;;;;5.18;100.00;99978.31;7346446;19;20430;-40
2024/01/22 03:39:04;;;;;;;10.50;4.50;;;;;;;5.19;100.00;99957.06;7325358;19;20439;-40
2024/01/22 03:41:34;;;;;;;3.90;1.20;;;;;;;5.23;100.00;99989.66;7348628;19;20996;-39
2024/01/22 03:44:05;;;;;;;4.70;2.37;;;;;;;5.23;100.00;99971.75;7324884;19;20431;-39
2024/01/22 03:46:35;;;;;;;5.17;2.20;;;;;;;5.25;100.00;99953.16;7346905;19;20895;-39
2024/01/22 03:49:04;;;;;;;6.63;3.07;;;;;;;5.34;100.00;99942.47;7325302;19;20451;-39
2024/01/22 03:51:34;;;;;;;25.13;9.50;;;;;;;5.38;100.00;99929.03;7346988;19;20425;-39
2024/01/22 03:54:07;;;;;;;6.87;3.63;;;;;;;5.32;100.00;99918.50;7324692;19;20778;-39
2024/01/22 03:56:37;;;;;;;8.37;2.90;;;;;;;5.34;100.00;99901.53;7346407;19;20450;-40
2024/01/22 03:59:07;;;;;;;9.43;3.70;;;;;;;5.36;100.00;99899.06;7325246;19;20392;-40
2024/01/22 04:01:36;;;;;;;8.00;1.60;;;;;;;5.36;100.00;99876.94;7345679;19;21007;-39
2024/01/22 04:04:06;;;;;;;5.17;4.10;;;;;;;5.23;100.00;99870.31;7321543;19;20514;-40
2024/01/22 04:06:36;;;;;;;10.17;2.47;;;;;;;5.19;100.00;99863.31;7345765;19;20409;-39
2024/01/22 04:09:10;;;;;;;4.43;1.90;;;;;;;5.24;100.00;99849.03;7326597;19;20856;-39
2024/01/22 04:11:41;;;;;;;6.37;2.83;;;;;;;5.22;100.00;99845.56;7352877;19;20431;-41
2024/01/22 04:14:10;;;;;;;5.30;2.27;;;;;;;5.21;100.00;99820.78;7331861;19;20399;-41
2024/01/22 04:16:40;;;;;;;5.23;1.47;;;;;;;5.18;100.00;99789.94;7352866;19;20417;-39
2024/01/22 04:19:10;;;;;;;3.50;1.80;;;;;;;5.10;100.00;99760.56;7331992;19;21040;-40
2024/01/22 04:21:47;;;;;;;5.07;1.97;;;;;;;5.12;100.00;99751.28;7352272;19;20426;-39
2024/01/22 04:24:19;;;;;;;5.87;2.40;;;;;;;5.17;100.00;99725.94;7332816;19;20406;-40
2024/01/22 04:26:48;;;;;;;3.60;2.50;;;;;;;5.22;100.00;99722.78;7331483;19;20952;-42
2024/01/22 04:29:18;;;;;;;4.47;1.90;;;;;;;5.30;100.00;99706.91;7353832;19;20434;-40
2024/01/22 04:31:48;;;;;;;11.20;2.07;;;;;;;5.35;100.00;99710.56;7338000;19;20447;-40
2024/01/22 04:34:17;;;;;;;9.70;3.13;;;;;;;5.33;100.00;99704.50;7352854;19;20411;-40
2024/01/22 04:36:47;;;;;;;6.13;2.13;;;;;;;5.32;100.00;99677.19;7343545;19;20429;-39
2024/01/22 04:39:19;;;;;;;18.17;5.63;;;;;;;5.36;100.00;99666.25;7347324;19;20399;-41
2024/01/22 04:41:49;;;;;;;6.43;1.90;;;;;;;5.31;100.00;99665.19;7330297;19;20448;-39
2024/01/22 04:44:19;;;;;;;13.70;5.17;;;;;;;5.30;100.00;99641.31;7352570;19;20445;-39
2024/01/22 04:46:49;;;;;;;3.33;1.43;;;;;;;5.26;100.00;99637.72;7329725;19;20443;-40
2024/01/22 04:49:18;;;;;;;6.70;2.63;;;;;;;5.23;100.00;99612.00;7353255;19;20420;-41
2024/01/22 04:51:48;;;;;;;11.93;4.07;;;;;;;5.20;100.00;99639.13;7335988;19;20810;-40
2024/01/22 04:54:20;;;;;;;12.30;4.10;;;;;;;5.20;100.00;99637.44;7353177;19;20411;-39
2024/01/22 04:56:50;;;;;;;10.63;4.70;;;;;;;5.22;100.00;99634.94;7329266;19;20465;-40
2024/01/22 04:59:20;;;;;;;5.37;2.67;;;;;;;5.23;100.00;99652.91;7352003;19;20507;-39
2024/01/22 05:01:49;;;;;;;3.00;1.17;;;;;;;5.31;100.00;99644.72;7327391;19;20451;-39
2024/01/22 05:04:19;;;;;;;4.87;2.20;;;;;;;5.31;100.00;99639.59;7345170;19;20416;-40
2024/01/22 05:06:49;;;;;;;7.23;2.77;;;;;;;5.27;100.00;99621.56;7329102;19;20433;-38
2024/01/22 05:09:21;;;;;;;2.60;1.27;;;;;;;5.31;100.00;99639.59;7353353;19;20455;-39
2024/01/22 05:11:51;;;;;;;4.80;1.73;;;;;;;5.35;100.00;99621.03;7329341;19;20425;-39
2024/01/22 05:14:20;;;;;;;6.53;2.90;;;;;;;5.46;100.00;99599.38;7352797;19;20429;-39
2024/01/22 05:16:50;;;;;;;6.70;2.43;;;;;;;5.42;100.00;99594.91;7329434;19;20459;-39
2024/01/22 05:19:19;;;;;;;6.90;3.27;;;;;;;5.45;100.00;99602.75;7351674;19;20402;-39
2024/01/22 05:21:50;;;;;;;6.83;3.40;;;;;;;5.61;100.00;99593.16;7328286;19;20425;-39
2024/01/22 05:24:22;;;;;;;1.90;1.03;;;;;;;5.61;100.00;99588.03;7352088;19;20950;-42
2024/01/22 05:26:52;;;;;;;4.60;1.60;;;;;;;5.63;100.00;99591.53;7328118;19;20447;-39
2024/01/22 05:29:21;;;;;;;9.03;1.27;;;;;;;5.68;100.00;99590.03;7352707;19;20467;-39
2024/01/22 05:31:52;;;;;;;7.87;2.97;;;;;;;5.76;100.00;99575.91;7328327;19;20799;-40
2024/01/22 05:34:22;;;;;;;5.47;2.20;;;;;;;5.90;100.00;99555.13;7350864;19;20825;-40
2024/01/22 05:36:51;;;;;;;4.77;1.97;;;;;;;6.04;100.00;99577.09;7327729;19;20426;-39
2024/01/22 05:39:24;;;;;;;2.60;1.40;;;;;;;6.10;100.00;99547.41;7351490;19;20431;-42
2024/01/22 05:41:53;;;;;;;2.03;1.40;;;;;;;6.12;100.00;99548.34;7328834;19;20442;-41
2024/01/22 05:44:24;;;;;;;2.47;0.93;;;;;;;6.23;100.00;99531.72;7351628;19;20759;-41
2024/01/22 05:46:53;;;;;;;4.00;1.97;;;;;;;6.28;100.00;99525.09;7328246;19;20500;-40
2024/01/22 05:49:23;;;;;;;3.67;1.97;;;;;;;6.32;100.00;99536.34;7351522;19;20490;-39
2024/01/22 05:51:58;;;;;;;4.53;1.87;;;;;;;6.36;100.00;99525.38;7328151;19;20474;-39
2024/01/22 05:54:30;;;;;;;4.47;2.00;;;;;;;6.40;100.00;99509.31;7349969;19;20428;-42
2024/01/22 05:57:00;;;;;;;13.03;1.20;;;;;;;6.40;100.00;99516.16;7327867;19;20430;-40
2024/01/22 05:59:29;;;;;;;2.67;1.43;;;;;;;6.46;100.00;99521.50;7350516;19;20459;-40
2024/01/22 06:01:59;;;;;;;2.63;1.40;;;;;;;6.44;100.00;99508.63;7328082;19;20506;-40
2024/01/22 06:04:29;;;;;;;2.73;0.77;;;;;;;6.56;100.00;99509.94;7348354;19;20428;-39
2024/01/22 06:06:58;;;;;;;1.73;1.10;;;;;;;6.64;100.00;99523.00;7327403;19;20448;-40
2024/01/22 06:09:37;;;;;;;1.37;0.70;;;;;;;6.61;100.00;99518.63;7349897;19;20448;-40
2024/01/22 06:12:08;;;;;;;2.03;0.90;;;;;;;6.70;100.00;99521.56;7328061;19;20393;-40
2024/01/22 06:14:38;;;;;;;3.70;1.90;;;;;;;6.88;100.00;99500.84;7350032;19;21028;-39
2024/01/22 06:17:09;;;;;;;3.27;1.70;;;;;;;6.93;100.00;99488.22;7328027;19;20385;-41
2024/01/22 06:19:40;;;;;;;5.33;1.43;;;;;;;6.87;100.00;99514.50;7347060;19;20434;-40
2024/01/22 06:22:10;;;;;;;2.30;1.40;;;;;;;6.95;100.00;99511.34;7325433;19;20419;-41
2024/01/22 06:24:42;;;;;;;3.87;1.00;;;;;;;6.94;100.00;99499.34;7345347;19;21250;-40
2024/01/22 06:27:12;;;;;;;2.27;1.10;;;;;;;7.10;100.00;99493.94;7326996;19;20398;-41
2024/01/22 06:29:42;;;;;;;1.53;0.63;;;;;;;7.14;100.00;99497.50;7350157;19;20434;-39
2024/01/22 06:32:11;;;;;;;2.40;1.30;;;;;;;7.18;100.00;99483.09;7324428;19;20773;-39
2024/01/22 06:34:41;;;;;;;7.43;2.20;;;;;;;7.29;100.00;99477.50;7348938;19;21240;-42
2024/01/22 06:37:11;;;;;;;1.87;1.30;;;;;;;7.40;100.00;99477.00;7326793;19;20432;-41
2024/01/22 06:39:43;;;;;;;2.23;1.20;;;;;;;7.45;100.00;99497.69;7348852;19;20900;-40
2024/01/22 06:42:13;;;;;;;2.57;1.20;;;;;;;7.39;100.00;99478.69;7327257;19;20410;-40
2024/01/22 06:44:59;;;;;;;1.80;0.80;;;;;;;7.41;100.00;99484.75;7326852;19;20423;-40
2024/01/22 06:47:30;;;;;;;3.30;1.30;;;;;;;7.38;100.00;99478.66;7345778;19;20420;-40
2024/01/22 06:49:59;;;;;;;1.90;0.90;;;;;;;7.39;100.00;99462.44;7326786;19;20496;-39
2024/01/22 06:52:29;;;;;;;2.33;1.13;;;;;;;7.49;100.00;99461.03;7347695;19;20437;-40
2024/01/22 06:55:02;;;;;;;2.20;1.00;;;;;;;7.53;100.00;99461.19;7327329;19;20427;-41
2024/01/22 06:57:32;;;;;;;3.07;1.17;;;;;;;7.61;100.00;99466.59;7348016;19;20418;-40
2024/01/22 07:00:06;;;;;;;1.97;0.73;;;;;;;7.60;100.00;99467.41;7325983;19;20497;-40
2024/01/22 07:02:37;;;;;;;1.67;0.80;;;;;;;7.62;100.00;99483.72;7347489;19;20935;-39
2024/01/22 07:05:08;;;;;;;1.93;0.97;;;;;;;7.64;100.00;99466.66;7325024;19;20398;-40
2024/01/22 07:07:38;;;;;;;2.50;1.00;;;;;;;7.66;100.00;99470.19;7347497;19;20884;-39
2024/01/22 07:10:11;;;;;;;3.67;1.20;;;;;;;7.82;100.00;99486.06;7326837;19;20472;-40
2024/01/22 07:12:41;;;;;;;1.70;0.90;;;;;;;7.93;100.00;99466.75;7347879;19;20430;-40
2024/01/22 07:15:12;;;;;;;2.53;0.93;;;;;;;7.99;100.00;99466.06;7325745;19;20398;-40
2024/01/22 07:17:44;;;;;;;2.73;1.30;;;;;;;7.93;100.00;99476.13;7344834;19;20437;-40
2024/01/22 07:20:15;;;;;;;3.07;0.90;;;;;;;7.92;100.00;99456.41;7324308;19;20950;-39
2024/01/22 07:22:46;;;;;;;1.97;0.70;;;;;;;8.00;100.00;99461.81;7347425;19;20884;-42
2024/01/22 07:25:20;;;;;;;1.73;0.80;;;;;;;8.08;100.00;99475.75;7326689;19;20424;-41
2024/01/22 07:27:49;;;;;;;1.60;0.60;;;;;;;8.12;100.00;99449.34;7323106;19;20430;-39
2024/01/22 07:30:19;;;;;;;4.10;1.40;;;;;;;8.11;100.00;99481.00;7347300;19;20812;-40
2024/01/22 07:32:49;;;;;;;1.83;1.07;;;;;;;8.10;100.00;99472.41;7326152;19;20431;-38
2024/01/22 07:35:19;;;;;;;1.93;0.93;;;;;;;8.10;100.00;99479.22;7347519;19;20824;-39
2024/01/22 07:37:48;;;;;;;2.10;1.20;;;;;;;8.16;100.00;99469.16;7331127;19;20424;-42
2024/01/22 07:40:21;;;;;;;1.60;0.50;;;;;;;8.13;100.00;99471.63;7346266;19;20400;-39
2024/01/22 07:42:50;;;;;;;2.27;0.97;;;;;;;8.16;100.00;99464.00;7323173;19;20432;-39
2024/01/22 07:45:20;;;;;;;1.60;0.80;;;;;;;8.21;100.00;99452.19;7346367;19;20465;-40
2024/01/22 07:47:49;;;;;;;3.30;1.27;;;;;;;8.29;100.00;99456.69;7322006;19;20428;-39
2024/01/22 07:50:20;;;;;;;1.80;0.80;;;;;;;8.34;100.00;99478.25;7347930;19;20954;-40
2024/01/22 07:52:49;;;;;;;3.73;1.27;;;;;;;8.42;100.00;99461.38;7324544;19;20439;-39
2024/01/22 07:55:21;;;;;;;1.83;1.00;;;;;;;8.53;100.00;99479.72;7347181;19;20403;-39
2024/01/22 07:57:51;;;;;;;2.97;1.27;;;;;;;8.37;100.00;99480.94;7324064;19;20423;-40
2024/01/22 08:00:21;;;;;;;1.90;0.67;;;;;;;8.14;100.00;99500.78;7346882;19;20396;-40
2024/01/22 08:02:51;;;;;;;1.60;0.80;;;;;;;8.10;100.00;99482.69;7322346;19;20419;-39
2024/01/22 08:05:21;;;;;;;2.10;0.87;;;;;;;8.08;100.00;99478.31;7346789;19;20410;-39
2024/01/22 08:07:50;;;;;;;2.40;1.33;;;;;;;8.11;100.00;99496.41;7323176;19;20434;-38
2024/01/22 08:10:22;;;;;;;1.60;0.90;;;;;;;8.10;100.00;99463.81;7347605;19;20400;-39
2024/01/22 08:12:52;;;;;;;1.80;1.13;;;;;;;8.12;100.00;99464.75;7323682;19;20438;-41
2024/01/22 08:15:22;;;;;;;2.90;1.30;;;;;;;8.11;100.00;99475.88;7346728;19;20423;-39
2024/01/22 08:17:52;;;;;;;2.93;1.57;;;;;;;8.12;100.00;99462.19;7323292;19;20509;-41
2024/01/22 08:20:21;;;;;;;2.53;1.00;;;;;;;8.08;100.00;99478.31;7344256;19;20384;-40
2024/01/22 08:22:51;;;;;;;2.43;1.17;;;;;;;8.02;100.00;99512.41;7323824;19;20983;-40
2024/01/22 08:25:27;;;;;;;6.60;1.60;;;;;;;7.96;100.00;99495.09;7346227;19;20537;-40
2024/01/22 08:27:58;;;;;;;1.67;0.80;;;;;;;7.93;100.00;99499.25;7322877;19;20458;-40
2024/01/22 08:30:27;;;;;;;2.77;1.53;;;;;;;7.95;100.00;99534.44;7344832;19;20483;-40
2024/01/22 08:32:58;;;;;;;1.70;1.10;;;;;;;7.89;100.00;99603.59;7323302;19;20444;-40
2024/01/22 08:35:28;;;;;;;3.73;1.13;;;;;;;7.84;100.00;99657.38;7345496;19;20444;-40
2024/01/22 08:37:57;;;;;;;2.17;1.17;;;;;;;7.81;100.00;99707.75;7323286;19;20420;-40
2024/01/22 08:40:30;;;;;;;1.93;1.40;;;;;;;7.81;100.00;99764.25;7346524;19;20431;-40
2024/01/22 08:43:00;;;;;;;3.87;2.43;;;;;;;7.80;100.00;99839.53;7323969;19;20443;-40
2024/01/22 08:45:30;;;;;;;2.13;1.50;;;;;;;7.75;100.00;99854.75;7346025;19;20440;-41
2024/01/22 08:47:59;;;;;;;3.77;1.70;;;;;;;7.75;100.00;99882.13;7320751;19;20815;-40
2024/01/22 08:50:29;;;;;;;3.60;2.30;;;;;;;7.74;100.00;99898.38;7343973;19;21026;-41
2024/01/22 08:52:59;;;;;;;1.70;1.10;;;;;;;7.73;100.00;99930.84;7321631;19;20967;-40
2024/01/22 08:55:31;;;;;;;2.80;1.77;;;;;;;7.77;100.00;99930.19;7348914;19;21096;-42
2024/01/22 08:58:01;;;;;;;6.73;2.47;;;;;;;7.82;100.00;99922.66;7329478;19;20433;-39
2024/01/22 09:00:30;;;;;;;4.63;2.27;;;;;;;7.93;100.00;99939.38;7352426;19;20430;-39
2024/01/22 09:03:00;;;;;;;4.17;1.43;;;;;;;7.98;100.00;99913.84;7329375;19;20419;-41
2024/01/22 09:05:30;;;;;;;1.93;1.73;;;;;;;8.05;100.00;99903.00;7350759;19;20971;-39
2024/01/22 09:08:00;;;;;;;1.73;1.30;;;;;;;8.09;100.00;99883.41;7329035;19;20428;-40
2024/01/22 09:10:32;;;;;;;3.47;2.77;;;;;;;8.09;100.00;99886.88;7351491;19;20519;-41
2024/01/22 09:13:03;;;;;;;3.87;2.33;;;;;;;8.09;100.00;99892.03;7330330;19;20427;-40
2024/01/22 09:15:32;;;;;;;4.33;3.00;;;;;;;8.11;100.00;99879.25;7350595;19;20590;-40
2024/01/22 09:18:02;;;;;;;4.93;2.27;;;;;;;8.16;100.00;99879.41;7328983;19;20427;-40
2024/01/22 09:20:33;;;;;;;2.83;1.80;;;;;;;8.17;100.00;99876.91;7351398;19;20447;-40
2024/01/22 09:23:03;;;;;;;2.57;1.83;;;;;;;8.17;100.00;99851.22;7329475;19;20445;-40
2024/01/22 09:25:36;;;;;;;5.03;2.70;;;;;;;8.33;100.00;99856.88;7351424;19;20418;-40
2024/01/22 09:28:06;;;;;;;3.93;2.70;;;;;;;8.30;100.00;99811.38;7327741;19;20431;-40
2024/01/22 09:30:36;;;;;;;3.03;2.10;;;;;;;8.31;100.00;99797.72;7350763;19;20439;-41
2024/01/22 09:33:06;;;;;;;2.73;1.93;;;;;;;8.38;100.00;99775.69;7329552;19;20443;-39
2024/01/22 09:35:36;;;;;;;3.77;2.00;;;;;;;8.33;100.00;99767.81;7348611;19;20457;-40
2024/01/22 09:38:06;;;;;;;4.67;2.03;;;;;;;8.30;100.00;99743.72;7327450;19;20444;-40
2024/01/22 09:40:38;;;;;;;7.87;3.27;;;;;;;8.26;100.00;99752.13;7350630;19;20819;-39
2024/01/22 09:43:10;;;;;;;3.47;1.90;;;;;;;8.18;100.00;99775.84;7327870;19;21684;-40
2024/01/22 09:45:39;;;;;;;5.50;3.00;;;;;;;8.18;100.00;99818.66;7350506;19;20435;-39
2024/01/22 09:48:11;;;;;;;5.60;2.30;;;;;;;8.17;100.00;99860.59;7328296;19;20380;-40
2024/01/22 09:50:41;;;;;;;2.97;2.00;;;;;;;8.09;100.00;99888.56;7351176;19;20545;-42
2024/01/22 09:53:12;;;;;;;8.47;3.50;;;;;;;8.05;100.00;99935.53;7326685;19;20414;-40
2024/01/22 09:55:44;;;;;;;22.63;9.33;;;;;;;8.02;100.00;99969.69;7346767;19;21123;-41
2024/01/22 09:58:19;;;;;;;26.07;10.40;;;;;;;7.95;100.00;99976.25;7328204;19;20467;-41
2024/01/22 10:00:49;;;;;;;4.83;2.00;;;;;;;7.79;100.00;100020.13;7334777;19;20543;-41
2024/01/22 10:03:19;;;;;;;12.00;3.80;;;;;;;7.74;100.00;100042.16;7349827;19;20462;-40
2024/01/22 10:05:51;;;;;;;9.27;2.87;;;;;;;7.70;100.00;100046.31;7332318;19;20427;-39
2024/01/22 10:08:21;;;;;;;9.87;5.50;;;;;;;7.67;100.00;100047.03;7350307;19;20424;-41
2024/01/22 10:10:53;;;;;;;7.17;4.13;;;;;;;7.65;100.00;100033.25;7327533;19;20472;-38
2024/01/22 10:13:23;;;;;;;9.83;4.10;;;;;;;7.65;100.00;100010.13;7351408;19;20423;-40
2024/01/22 10:15:53;;;;;;;6.53;3.83;;;;;;;7.63;100.00;99990.38;7327584;19;20423;-42
2024/01/22 10:18:22;;;;;;;9.00;4.20;;;;;;;7.64;100.00;99945.91;7350911;19;20436;-40
2024/01/22 10:20:52;;;;;;;10.90;5.10;;;;;;;7.63;100.00;99909.06;7327130;19;20441;-40
2024/01/22 10:23:22;;;;;;;10.40;4.57;;;;;;;7.63;100.00;99910.78;7350699;19;20497;-42
2024/01/22 10:26:09;;;;;;;11.03;4.20;;;;;;;7.59;100.00;99922.59;7326404;19;20868;-39
2024/01/22 10:28:39;;;;;;;14.13;5.27;;;;;;;7.51;100.00;99903.44;7347805;19;20430;-39
2024/01/22 10:31:11;;;;;;;5.33;2.63;;;;;;;7.40;100.00;99883.34;7327282;19;20402;-45
2024/01/22 10:33:41;;;;;;;1.70;1.10;;;;;;;7.44;100.00;99876.66;7349957;19;20838;-40
2024/01/22 10:36:19;;;;;;;7.30;2.60;;;;;;;7.52;100.00;99874.38;7326883;19;20400;-40
2024/01/22 10:38:50;;;;;;;2.73;1.80;;;;;;;7.55;100.00;99829.19;7329181;19;20509;-40
2024/01/22 10:41:23;;;;;;;5.30;4.03;;;;;;;7.50;100.00;99827.25;7348783;19;20409;-39
2024/01/22 10:43:53;;;;;;;6.37;2.10;;;;;;;7.48;100.00;99831.47;7326012;19;20428;-39
2024/01/22 10:46:24;;;;;;;4.20;1.90;;;;;;;7.42;100.00;99843.22;7344548;19;20425;-39
2024/01/22 10:48:55;;;;;;;10.43;2.87;;;;;;;7.39;100.00;99835.41;7323582;19;20424;-39
2024/01/22 10:51:25;;;;;;;5.87;1.53;;;;;;;7.35;100.00;99837.78;7347775;19;20454;-39
2024/01/22 10:53:55;;;;;;;6.30;1.00;;;;;;;7.28;100.00;99844.38;7325834;19;20427;-41
2024/01/22 10:56:30;;;;;;;6.83;1.73;;;;;;;7.27;100.00;99850.31;7347416;19;20446;-39
2024/01/22 10:59:01;;;;;;;9.23;2.17;;;;;;;7.23;100.00;99851.00;7325727;19;20422;-40
2024/01/22 11:01:36;;;;;;;2.23;1.10;;;;;;;7.23;100.00;99903.19;7347106;19;20434;-38
2024/01/22 11:04:07;;;;;;;10.90;2.57;;;;;;;7.25;100.00;99905.81;7324396;19;20422;-38
2024/01/22 11:06:39;;;;;;;9.63;1.63;;;;;;;7.24;100.00;99934.88;7347507;19;20434;-40
2024/01/22 11:09:12;;;;;;;5.80;1.70;;;;;;;7.21;100.00;99940.75;7323897;19;20395;-41
2024/01/22 11:11:45;;;;;;;8.73;2.23;;;;;;;7.23;100.00;99927.97;7347225;19;20995;-40
2024/01/22 11:14:15;;;;;;;7.07;1.50;;;;;;;7.22;100.00;99939.06;7326986;19;20392;-38
2024/01/22 11:16:45;;;;;;;8.50;1.37;;;;;;;7.21;100.00;99938.19;7346969;19;20550;-40
2024/01/22 11:19:22;;;;;;;13.50;2.00;;;;;;;7.22;100.00;99947.63;7325394;19;20473;-39
2024/01/22 11:21:52;;;;;;;11.87;2.37;;;;;;;7.21;100.00;99948.44;7324902;19;20812;-40
2024/01/22 11:24:24;;;;;;;7.20;1.33;;;;;;;7.22;100.00;99951.91;7347156;19;20970;-39
2024/01/22 11:27:09;;;;;;;10.43;1.37;;;;;;;7.24;100.00;99945.13;7323857;19;20423;-38
2024/01/22 11:29:39;;;;;;;5.30;1.43;;;;;;;7.28;100.00;99937.63;7346480;19;20453;-39
2024/01/22 11:32:27;;;;;;;9.53;1.70;;;;;;;7.37;100.00;99946.50;7324498;19;20957;-40
2024/01/22 11:34:59;;;;;;;5.70;1.50;;;;;;;7.45;100.00;99954.53;7324801;19;20831;-38
2024/01/22 11:37:43;;;;;;;10.53;1.33;;;;;;;7.47;100.00;99968.28;7344849;19;20499;-38
2024/01/22 11:40:16;;;;;;;12.33;1.93;;;;;;;7.47;100.00;99984.59;7326298;19;20398;-38
2024/01/22 11:42:48;;;;;;;3.40;1.10;;;;;;;7.49;100.00;100002.63;7346936;19;20470;-38
2024/01/22 11:45:18;;;;;;;10.90;2.10;;;;;;;7.50;100.00;100030.03;7325933;19;20419;-39